createdAt,value
2023-01-04T00:00:20.546Z,89.05
2023-01-04T00:01:24.204Z,88.92
2023-01-04T00:02:28.859Z,89.36
2023-01-04T00:03:33.770Z,88.98
2023-01-04T00:04:37.712Z,89.08
2023-01-04T00:05:41.533Z,89.24
2023-01-04T00:06:48.593Z,89.00
2023-01-04T00:07:52.297Z,89.36
2023-01-04T00:08:56.468Z,89.32
2023-01-04T00:10:00.454Z,89.06
2023-01-04T00:11:13.461Z,89.39
2023-01-04T00:12:18.149Z,89.17
2023-01-04T00:13:22.081Z,89.44
2023-01-04T00:14:25.880Z,89.67
2023-01-04T00:15:29.712Z,89.52
2023-01-04T00:16:33.421Z,89.54
2023-01-04T00:17:37.040Z,89.71
2023-01-04T00:18:42.791Z,89.57
2023-01-04T00:19:46.537Z,89.55
2023-01-04T00:20:50.689Z,89.76
2023-01-04T00:21:54.486Z,89.44
2023-01-04T00:22:59.047Z,89.96
2023-01-04T00:24:02.971Z,90.09
2023-01-04T00:25:16.830Z,90.23
2023-01-04T00:26:33.107Z,89.91
2023-01-04T00:27:38.761Z,90.29
2023-01-04T00:28:48.413Z,90.17
2023-01-04T00:29:58.634Z,90.34
2023-01-04T00:31:08.285Z,90.27
2023-01-04T00:32:19.151Z,90.22
2023-01-04T00:33:23.743Z,90.16
2023-01-04T00:34:31.248Z,90.36
2023-01-04T00:35:45.928Z,90.32
2023-01-04T00:36:49.946Z,90.62
2023-01-04T00:37:53.547Z,90.28
2023-01-04T00:39:14.500Z,90.77
2023-01-04T00:40:18.215Z,90.76
2023-01-04T00:41:56.855Z,90.77
2023-01-04T00:42:45.473Z,90.86
2023-01-04T00:43:48.990Z,90.79
2023-01-04T00:44:52.642Z,90.90
2023-01-04T00:45:57.327Z,90.59
2023-01-04T00:47:02.944Z,90.31
2023-01-04T00:48:13.171Z,90.67
2023-01-04T00:49:17.276Z,90.70
2023-01-04T00:50:20.745Z,90.37
2023-01-04T00:51:24.284Z,90.55
2023-01-04T00:52:27.812Z,90.43
2023-01-04T00:53:31.540Z,90.50
2023-01-04T00:54:35.581Z,90.50
2023-01-04T00:55:39.385Z,90.72
2023-01-04T00:56:44.306Z,90.43
2023-01-04T00:57:47.799Z,90.70
2023-01-04T00:58:59.587Z,90.88
2023-01-04T01:00:05.158Z,90.80
2023-01-04T01:01:15.023Z,91.02
2023-01-04T01:02:18.673Z,90.87
2023-01-04T01:03:22.981Z,91.08
2023-01-04T01:04:27.917Z,91.04
2023-01-04T01:05:35.643Z,91.10
2023-01-04T01:06:40.425Z,91.20
2023-01-04T01:07:43.865Z,91.36
2023-01-04T01:08:47.740Z,91.13
2023-01-04T01:09:51.465Z,91.12
2023-01-04T01:10:55.470Z,90.89
2023-01-04T01:11:59.292Z,91.14
2023-01-04T01:13:02.816Z,91.00
2023-01-04T01:14:19.372Z,90.87
2023-01-04T01:15:23.290Z,90.96
2023-01-04T01:16:52.968Z,91.16
2023-01-04T01:17:50.820Z,91.12
2023-01-04T01:18:55.138Z,91.21
2023-01-04T01:19:58.706Z,91.38
2023-01-04T01:21:18.086Z,91.26
2023-01-04T01:22:21.679Z,91.56
2023-01-04T01:23:25.252Z,91.38
2023-01-04T01:24:29.091Z,91.49
2023-01-04T01:25:34.601Z,91.35
2023-01-04T01:26:38.522Z,91.45
2023-01-04T01:27:43.268Z,91.22
2023-01-04T01:28:48.569Z,91.25
2023-01-04T01:29:53.794Z,91.57
2023-01-04T01:31:05.145Z,91.60
2023-01-04T01:32:14.700Z,91.74
2023-01-04T01:33:21.710Z,91.54
2023-01-04T01:34:25.537Z,91.46
2023-01-04T01:35:29.520Z,91.61
2023-01-04T01:36:33.947Z,91.47
2023-01-04T01:37:37.875Z,91.60
2023-01-04T01:38:42.302Z,91.65
2023-01-04T01:39:47.278Z,91.65
2023-01-04T01:40:51.601Z,91.40
2023-01-04T01:41:56.020Z,91.32
2023-01-04T01:43:00.531Z,91.30
2023-01-04T01:44:43.254Z,91.60
2023-01-04T01:46:00.325Z,91.53
2023-01-04T01:47:04.621Z,91.69
2023-01-04T01:48:30.859Z,91.54
2023-01-04T01:49:38.730Z,91.53
2023-01-04T01:51:00.211Z,91.67
2023-01-04T01:52:16.820Z,91.43
2023-01-04T01:53:21.684Z,91.48
2023-01-04T01:54:37.123Z,91.49
2023-01-04T01:55:45.121Z,91.44
2023-01-04T01:56:53.611Z,91.73
2023-01-04T01:57:58.846Z,91.80
2023-01-04T01:59:05.527Z,91.71
2023-01-04T02:00:19.663Z,91.63
2023-01-04T02:01:23.576Z,91.50
2023-01-04T02:02:28.075Z,91.87
2023-01-04T02:03:43.103Z,91.52
2023-01-04T02:04:52.187Z,91.67
2023-01-04T02:06:04.654Z,91.69
2023-01-04T02:07:19.919Z,91.93
2023-01-04T02:08:26.254Z,91.75
2023-01-04T02:09:32.681Z,92.06
2023-01-04T02:10:37.013Z,92.10
2023-01-04T02:11:40.958Z,92.11
2023-01-04T02:12:46.817Z,91.98
2023-01-04T02:14:11.537Z,92.10
2023-01-04T02:15:17.408Z,92.14
2023-01-04T02:16:51.319Z,92.29
2023-01-04T02:18:28.748Z,92.26
2023-01-04T02:20:38.236Z,92.22
2023-01-04T02:22:31.775Z,92.54
2023-01-04T02:24:12.424Z,92.88
2023-01-04T02:26:18.426Z,92.94
2023-01-04T02:27:55.503Z,93.18
2023-01-04T02:29:55.510Z,93.14
2023-01-04T02:31:38.460Z,92.90
2023-01-04T02:33:46.519Z,93.10
2023-01-04T02:35:28.320Z,92.93
2023-01-04T02:37:13.440Z,92.97
2023-01-04T02:38:52.343Z,92.78
2023-01-04T02:40:27.673Z,93.02
2023-01-04T02:41:54.941Z,92.72
2023-01-04T02:43:28.575Z,92.67
2023-01-04T02:44:54.200Z,92.45
2023-01-04T02:46:17.504Z,92.68
2023-01-04T02:47:56.153Z,92.70
2023-01-04T02:49:22.560Z,92.69
2023-01-04T02:50:36.374Z,92.38
2023-01-04T02:51:40.392Z,92.66
2023-01-04T02:52:44.471Z,92.58
2023-01-04T02:53:48.146Z,92.40
2023-01-04T02:54:57.878Z,92.52
2023-01-04T02:56:36.179Z,92.29
2023-01-04T02:58:18.519Z,92.16
2023-01-04T02:59:44.909Z,91.98
2023-01-04T03:01:46.936Z,92.18
2023-01-04T03:03:43.081Z,91.67
2023-01-04T03:05:40.742Z,91.75
2023-01-04T03:07:35.351Z,91.69
2023-01-04T03:09:01.034Z,92.06
2023-01-04T03:10:31.405Z,91.76
2023-01-04T03:12:32.774Z,91.72
2023-01-04T03:13:46.019Z,92.09
2023-01-04T03:15:18.382Z,91.92
2023-01-04T03:16:26.772Z,91.96
2023-01-04T03:17:42.834Z,92.02
2023-01-04T03:18:53.939Z,92.06
2023-01-04T03:20:00.535Z,92.42
2023-01-04T03:21:14.496Z,92.10
2023-01-04T03:22:54.053Z,92.18
2023-01-04T03:24:19.714Z,92.38
2023-01-04T03:25:50.181Z,92.29
2023-01-04T03:27:27.901Z,92.44
2023-01-04T03:28:57.999Z,92.27
2023-01-04T03:30:32.864Z,92.68
2023-01-04T03:32:35.199Z,92.67
2023-01-04T03:33:57.709Z,92.55
2023-01-04T03:35:21.220Z,92.33
2023-01-04T03:36:58.017Z,92.65
2023-01-04T03:38:24.442Z,92.62
2023-01-04T03:40:35.247Z,92.51
2023-01-04T03:42:13.295Z,92.66
2023-01-04T03:43:56.299Z,92.36
2023-01-04T03:45:33.912Z,92.76
2023-01-04T03:47:14.266Z,92.82
2023-01-04T03:49:14.561Z,92.32
2023-01-04T03:50:31.904Z,92.22
2023-01-04T03:51:38.892Z,92.18
2023-01-04T03:52:46.475Z,92.69
2023-01-04T03:53:56.741Z,92.51
2023-01-04T03:55:03.720Z,92.49
2023-01-04T03:56:17.529Z,92.47
2023-01-04T03:57:23.676Z,92.29
2023-01-04T03:58:28.836Z,92.47
2023-01-04T03:59:42.617Z,92.54
2023-01-04T04:00:50.487Z,92.41
2023-01-04T04:01:54.956Z,92.55
2023-01-04T04:03:17.880Z,92.23
2023-01-04T04:04:42.763Z,92.18
2023-01-04T04:06:09.032Z,92.21
2023-01-04T04:07:33.162Z,92.15
2023-01-04T04:08:37.804Z,92.15
2023-01-04T04:09:42.374Z,92.16
2023-01-04T04:10:45.824Z,92.37
2023-01-04T04:11:51.007Z,92.17
2023-01-04T04:12:55.026Z,92.02
2023-01-04T04:14:00.723Z,92.11
2023-01-04T04:15:05.432Z,92.25
2023-01-04T04:16:13.568Z,91.85
2023-01-04T04:17:19.096Z,92.06
2023-01-04T04:18:23.147Z,91.73
2023-01-04T04:19:27.029Z,92.05
2023-01-04T04:20:31.319Z,91.69
2023-01-04T04:21:34.938Z,91.65
2023-01-04T04:22:41.126Z,91.70
2023-01-04T04:23:57.691Z,91.94
2023-01-04T04:25:21.612Z,91.79
2023-01-04T04:26:25.156Z,91.75
2023-01-04T04:27:29.444Z,91.71
2023-01-04T04:28:34.407Z,91.68
2023-01-04T04:29:38.304Z,91.77
2023-01-04T04:30:43.768Z,91.60
2023-01-04T04:31:47.976Z,91.72
2023-01-04T04:32:52.088Z,91.76
2023-01-04T04:33:55.914Z,91.58
2023-01-04T04:35:00.100Z,91.59
2023-01-04T04:36:04.874Z,91.68
2023-01-04T04:37:14.753Z,91.89
2023-01-04T04:38:18.978Z,92.04
2023-01-04T04:39:22.944Z,91.83
2023-01-04T04:40:45.940Z,92.17
2023-01-04T04:41:49.679Z,91.73
2023-01-04T04:42:53.412Z,92.01
2023-01-04T04:43:58.234Z,92.03
2023-01-04T04:45:02.399Z,92.28
2023-01-04T04:46:12.292Z,92.22
2023-01-04T04:47:19.635Z,92.04
2023-01-04T04:48:23.563Z,92.16
2023-01-04T04:49:27.237Z,92.65
2023-01-04T04:50:30.921Z,92.52
2023-01-04T04:51:35.326Z,92.71
2023-01-04T04:52:41.900Z,92.90
2023-01-04T04:53:46.774Z,92.85
2023-01-04T04:54:51.097Z,93.09
2023-01-04T04:55:55.555Z,93.66
2023-01-04T04:57:00.012Z,93.66
2023-01-04T04:58:12.801Z,93.40
2023-01-04T04:59:22.382Z,93.58
2023-01-04T05:00:26.019Z,93.52
2023-01-04T05:01:31.151Z,93.83
2023-01-04T05:02:36.253Z,94.07
2023-01-04T05:03:40.721Z,94.05
2023-01-04T05:04:45.492Z,93.68
2023-01-04T05:05:49.597Z,93.96
2023-01-04T05:06:53.191Z,93.89
2023-01-04T05:07:57.308Z,94.21
2023-01-04T05:09:01.165Z,94.02
2023-01-04T05:10:07.084Z,94.17
2023-01-04T05:11:16.411Z,94.11
2023-01-04T05:12:39.071Z,93.68
2023-01-04T05:13:43.362Z,94.12
2023-01-04T05:14:47.553Z,93.95
2023-01-04T05:15:54.864Z,94.47
2023-01-04T05:16:59.209Z,94.33
2023-01-04T05:18:03.561Z,94.27
2023-01-04T05:19:15.142Z,94.49
2023-01-04T05:20:19.015Z,94.63
2023-01-04T05:21:22.929Z,94.42
2023-01-04T05:22:26.741Z,94.28
2023-01-04T05:23:30.539Z,94.60
2023-01-04T05:24:34.381Z,94.89
2023-01-04T05:25:39.547Z,95.04
2023-01-04T05:26:43.323Z,95.21
2023-01-04T05:27:46.976Z,95.28
2023-01-04T05:28:53.852Z,95.34
2023-01-04T05:30:16.514Z,95.47
2023-01-04T05:31:20.527Z,95.52
2023-01-04T05:32:25.221Z,95.49
2023-01-04T05:33:32.777Z,95.48
2023-01-04T05:34:36.456Z,95.96
2023-01-04T05:35:40.398Z,95.88
2023-01-04T05:36:45.064Z,96.13
2023-01-04T05:37:48.923Z,96.62
2023-01-04T05:38:53.265Z,96.72
2023-01-04T05:39:57.095Z,96.44
2023-01-04T05:41:01.822Z,96.47
2023-01-04T05:42:26.362Z,96.56
2023-01-04T05:43:29.877Z,96.77
2023-01-04T05:44:33.557Z,96.45
2023-01-04T05:45:38.073Z,96.53
2023-01-04T05:46:48.109Z,96.42
2023-01-04T05:47:55.339Z,96.49
2023-01-04T05:48:59.965Z,96.25
2023-01-04T05:50:07.044Z,96.12
2023-01-04T05:51:19.363Z,96.10
2023-01-04T05:52:22.877Z,95.91
2023-01-04T05:53:26.689Z,95.54
2023-01-04T05:54:30.540Z,96.10
2023-01-04T05:55:35.249Z,96.21
2023-01-04T05:56:39.607Z,96.28
2023-01-04T05:57:44.445Z,96.55
2023-01-04T05:58:49.427Z,97.84
2023-01-04T05:59:54.059Z,98.03
2023-01-04T06:00:58.312Z,98.04
2023-01-04T06:02:02.323Z,98.28
2023-01-04T06:03:07.822Z,98.73
2023-01-04T06:04:18.980Z,99.72
2023-01-04T06:05:26.248Z,99.83
2023-01-04T06:06:30.630Z,99.21
2023-01-04T06:07:35.072Z,98.97
2023-01-04T06:08:38.646Z,99.05
2023-01-04T06:09:44.330Z,99.09
2023-01-04T06:10:54.522Z,99.24
2023-01-04T06:11:58.240Z,99.07
2023-01-04T06:13:02.680Z,98.99
2023-01-04T06:14:35.566Z,99.55
2023-01-04T06:15:43.424Z,100.00
2023-01-04T06:16:47.437Z,100.00
2023-01-04T06:17:52.110Z,100.00
2023-01-04T06:18:56.147Z,100.00
2023-01-04T06:19:59.991Z,100.00
2023-01-04T06:21:04.375Z,100.00
2023-01-04T06:22:18.747Z,100.00
2023-01-04T06:23:23.590Z,100.00
2023-01-04T06:24:35.616Z,100.00
2023-01-04T06:25:39.512Z,100.00
2023-01-04T06:26:44.284Z,100.00
2023-01-04T06:27:53.209Z,100.00
2023-01-04T06:29:00.854Z,100.00
2023-01-04T06:30:06.906Z,100.00
2023-01-04T06:31:29.034Z,100.00
2023-01-04T06:32:34.275Z,100.00
2023-01-04T06:33:38.582Z,100.00
2023-01-04T06:34:42.297Z,100.00
2023-01-04T06:35:58.397Z,100.00
2023-01-04T06:37:03.734Z,100.00
2023-01-04T06:38:18.105Z,100.00
2023-01-04T06:39:23.298Z,100.00
2023-01-04T06:40:30.558Z,100.00
2023-01-04T06:41:37.190Z,100.00
2023-01-04T06:42:46.729Z,100.00
2023-01-04T06:43:51.616Z,99.95
2023-01-04T06:44:56.504Z,100.00
2023-01-04T06:46:08.361Z,99.93
2023-01-04T06:47:19.541Z,99.95
2023-01-04T06:48:24.534Z,99.83
2023-01-04T06:49:28.591Z,99.77
2023-01-04T06:50:32.412Z,99.70
2023-01-04T06:51:39.741Z,99.86
2023-01-04T06:52:43.391Z,99.50
2023-01-04T06:53:47.678Z,99.32
2023-01-04T06:54:51.824Z,99.21
2023-01-04T06:55:58.596Z,99.23
2023-01-04T06:57:06.316Z,98.99
2023-01-04T06:58:17.644Z,99.48
2023-01-04T06:59:30.406Z,99.35
2023-01-04T07:00:44.933Z,99.20
2023-01-04T07:01:52.326Z,98.98
2023-01-04T07:03:13.456Z,99.32
2023-01-04T07:04:28.397Z,99.25
2023-01-04T07:05:32.220Z,99.15
2023-01-04T07:06:37.119Z,99.28
2023-01-04T07:07:41.729Z,98.97
2023-01-04T07:08:45.278Z,98.58
2023-01-04T07:09:49.025Z,99.10
2023-01-04T07:10:54.014Z,99.66
2023-01-04T07:11:58.339Z,99.55
2023-01-04T07:13:02.166Z,99.14
2023-01-04T07:14:22.471Z,99.05
2023-01-04T07:15:38.951Z,98.71
2023-01-04T07:16:45.320Z,98.56
2023-01-04T07:17:50.448Z,98.42
2023-01-04T07:18:54.831Z,98.37
2023-01-04T07:19:59.116Z,97.80
2023-01-04T07:21:02.875Z,97.86
2023-01-04T07:22:12.093Z,97.89
2023-01-04T07:23:17.920Z,97.83
2023-01-04T07:24:29.581Z,97.85
2023-01-04T07:25:36.770Z,97.71
2023-01-04T07:26:41.503Z,97.82
2023-01-04T07:27:45.134Z,98.08
2023-01-04T07:29:08.029Z,98.17
2023-01-04T07:30:17.546Z,97.97
2023-01-04T07:31:21.864Z,97.90
2023-01-04T07:32:34.651Z,97.83
2023-01-04T07:33:52.175Z,97.58
2023-01-04T07:34:57.559Z,97.63
2023-01-04T07:36:09.156Z,97.67
2023-01-04T07:37:15.690Z,97.47
2023-01-04T07:38:20.242Z,97.36
2023-01-04T07:39:24.147Z,97.13
2023-01-04T07:40:28.139Z,97.04
2023-01-04T07:41:31.892Z,97.56
2023-01-04T07:42:36.316Z,97.46
2023-01-04T07:43:39.952Z,97.55
2023-01-04T07:44:44.797Z,97.81
2023-01-04T07:45:48.473Z,97.73
2023-01-04T07:46:52.240Z,97.96
2023-01-04T07:47:57.999Z,97.65
2023-01-04T07:49:01.873Z,97.93
2023-01-04T07:50:09.228Z,97.90
2023-01-04T07:51:17.566Z,97.32
2023-01-04T07:52:21.523Z,97.37
2023-01-04T07:53:25.227Z,97.52
2023-01-04T07:54:29.174Z,97.29
2023-01-04T07:55:32.859Z,97.08
2023-01-04T07:56:38.050Z,97.20
2023-01-04T07:57:42.275Z,96.75
2023-01-04T07:58:46.058Z,96.82
2023-01-04T07:59:49.736Z,97.08
2023-01-04T08:00:54.080Z,97.07
2023-01-04T08:01:57.802Z,97.09
2023-01-04T08:03:01.688Z,97.27
2023-01-04T08:04:09.412Z,97.49
2023-01-04T08:05:17.470Z,97.48
2023-01-04T08:06:30.169Z,97.08
2023-01-04T08:07:33.902Z,97.12
2023-01-04T08:08:37.598Z,96.65
2023-01-04T08:09:42.111Z,96.76
2023-01-04T08:11:12.843Z,96.69
2023-01-04T08:12:22.961Z,96.58
2023-01-04T08:13:27.534Z,97.03
2023-01-04T08:14:31.505Z,96.50
2023-01-04T08:15:37.473Z,96.78
2023-01-04T08:16:43.633Z,96.36
2023-01-04T08:17:47.718Z,96.07
2023-01-04T08:19:13.718Z,95.51
2023-01-04T08:20:17.919Z,94.96
2023-01-04T08:21:22.629Z,94.75
2023-01-04T08:22:26.327Z,95.35
2023-01-04T08:23:30.171Z,94.67
2023-01-04T08:24:33.934Z,95.29
2023-01-04T08:25:37.660Z,95.51
2023-01-04T08:26:42.310Z,95.42
2023-01-04T08:27:46.487Z,95.49
2023-01-04T08:28:51.594Z,94.95
2023-01-04T08:29:55.260Z,94.64
2023-01-04T08:30:59.780Z,94.75
2023-01-04T08:32:04.687Z,94.84
2023-01-04T08:33:17.204Z,94.18
2023-01-04T08:34:32.269Z,93.72
2023-01-04T08:35:35.893Z,94.38
2023-01-04T08:36:53.536Z,93.36
2023-01-04T08:38:18.841Z,93.67
2023-01-04T08:39:22.148Z,93.03
2023-01-04T08:40:25.748Z,92.73
2023-01-04T08:42:19.428Z,92.46
2023-01-04T08:43:19.029Z,92.84
2023-01-04T08:44:25.777Z,92.43
2023-01-04T08:45:30.393Z,92.30
2023-01-04T08:46:33.979Z,91.91
2023-01-04T08:47:38.036Z,91.49
2023-01-04T08:48:42.842Z,91.72
2023-01-04T08:49:46.531Z,91.31
2023-01-04T08:50:50.528Z,90.70
2023-01-04T08:51:54.673Z,90.66
2023-01-04T08:52:58.653Z,90.57
2023-01-04T08:54:02.461Z,90.27
2023-01-04T08:55:22.962Z,90.21
2023-01-04T08:56:27.439Z,90.35
2023-01-04T08:57:31.227Z,90.46
2023-01-04T08:58:37.880Z,90.45
2023-01-04T08:59:41.555Z,90.80
2023-01-04T09:00:48.044Z,90.58
2023-01-04T09:01:51.923Z,91.24
2023-01-04T09:02:56.233Z,91.04
2023-01-04T09:04:01.052Z,91.20
2023-01-04T09:05:06.016Z,91.46
2023-01-04T09:06:15.927Z,91.36
2023-01-04T09:07:19.619Z,91.44
2023-01-04T09:08:23.637Z,91.68
2023-01-04T09:09:30.706Z,91.62
2023-01-04T09:10:38.462Z,91.85
2023-01-04T09:11:41.971Z,91.93
2023-01-04T09:12:48.030Z,92.01
2023-01-04T09:14:04.569Z,92.47
2023-01-04T09:15:14.873Z,92.43
2023-01-04T09:16:20.577Z,92.69
2023-01-04T09:17:24.555Z,92.99
2023-01-04T09:18:32.737Z,93.29
2023-01-04T09:19:36.663Z,93.62
2023-01-04T09:20:40.295Z,93.41
2023-01-04T09:21:43.812Z,93.70
2023-01-04T09:22:48.316Z,93.98
2023-01-04T09:23:52.173Z,93.77
2023-01-04T09:24:55.747Z,93.79
2023-01-04T09:26:02.126Z,93.58
2023-01-04T09:27:12.350Z,93.47
2023-01-04T09:28:16.046Z,92.89
2023-01-04T09:29:20.146Z,92.47
2023-01-04T09:30:24.350Z,92.28
2023-01-04T09:31:29.363Z,91.72
2023-01-04T09:32:32.917Z,90.76
2023-01-04T09:34:12.148Z,89.51
2023-01-04T09:35:00.180Z,88.50
2023-01-04T09:36:12.892Z,88.53
2023-01-04T09:37:20.165Z,87.62
2023-01-04T09:38:24.378Z,85.56
2023-01-04T09:39:33.321Z,85.66
2023-01-04T09:41:01.546Z,84.85
2023-01-04T09:42:40.546Z,83.21
2023-01-04T09:44:20.533Z,82.82
2023-01-04T09:45:28.177Z,81.18
2023-01-04T09:46:43.424Z,81.30
2023-01-04T09:48:14.287Z,79.78
2023-01-04T09:49:57.554Z,80.09
2023-01-04T09:51:18.177Z,78.21
2023-01-04T09:53:00.579Z,78.42
2023-01-04T09:54:20.820Z,77.90
2023-01-04T09:55:43.120Z,77.62
2023-01-04T09:56:59.788Z,77.07
2023-01-04T09:58:20.474Z,77.66
2023-01-04T09:59:32.394Z,76.97
2023-01-04T10:00:45.522Z,77.36
2023-01-04T10:02:15.530Z,76.25
2023-01-04T10:03:40.226Z,76.67
2023-01-04T10:04:50.031Z,77.22
2023-01-04T10:05:57.240Z,76.67
2023-01-04T10:07:05.188Z,76.68
2023-01-04T10:08:20.289Z,76.51
2023-01-04T10:09:23.963Z,76.24
2023-01-04T10:10:55.605Z,74.41
2023-01-04T10:12:23.963Z,75.92
2023-01-04T10:13:48.865Z,75.52
2023-01-04T10:15:21.120Z,74.77
2023-01-04T10:17:01.825Z,75.34
2023-01-04T10:21:37.979Z,73.52
2023-01-04T10:23:13.326Z,73.88
2023-01-04T10:24:49.704Z,73.00
2023-01-04T10:26:16.447Z,73.48
2023-01-04T10:27:42.311Z,73.38
2023-01-04T10:29:29.213Z,74.22
2023-01-04T10:30:55.375Z,74.56
2023-01-04T10:32:15.879Z,74.27
2023-01-04T10:33:49.726Z,73.47
2023-01-04T10:34:54.520Z,73.04
2023-01-04T10:35:59.019Z,72.79
2023-01-04T10:37:36.063Z,71.94
2023-01-04T10:38:41.093Z,72.16
2023-01-04T10:39:46.566Z,72.27
2023-01-04T10:40:51.015Z,71.46
2023-01-04T10:42:09.946Z,70.99
2023-01-04T10:44:11.557Z,71.06
2023-01-04T10:45:39.190Z,70.49
2023-01-04T10:47:25.868Z,70.94
2023-01-04T10:48:49.172Z,71.36
2023-01-04T10:50:05.229Z,71.23
2023-01-04T10:51:21.346Z,71.56
2023-01-04T10:53:18.841Z,71.19
2023-01-04T10:54:56.743Z,70.70
2023-01-04T10:56:39.004Z,71.27
2023-01-04T10:58:00.862Z,70.30
2023-01-04T10:59:22.250Z,70.53
2023-01-04T11:00:52.667Z,70.61
2023-01-04T11:02:11.855Z,71.01
2023-01-04T11:03:52.323Z,70.09
2023-01-04T11:05:39.679Z,69.98
2023-01-04T11:07:17.773Z,69.81
2023-01-04T11:08:30.150Z,70.40
2023-01-04T11:09:50.759Z,70.04
2023-01-04T11:11:26.112Z,69.25
2023-01-04T11:12:33.716Z,69.49
2023-01-04T11:13:38.840Z,69.49
2023-01-04T11:14:42.713Z,69.57
2023-01-04T11:15:48.187Z,69.09
2023-01-04T11:17:05.347Z,68.76
2023-01-04T11:18:16.346Z,68.70
2023-01-04T11:19:20.001Z,68.55
2023-01-04T11:20:26.818Z,68.46
2023-01-04T11:21:41.981Z,67.74
2023-01-04T11:23:09.808Z,67.10
2023-01-04T11:24:33.288Z,67.55
2023-01-04T11:26:14.173Z,67.32
2023-01-04T11:27:27.179Z,67.00
2023-01-04T11:28:54.222Z,65.81
2023-01-04T11:30:19.795Z,66.22
2023-01-04T11:31:56.174Z,66.53
2023-01-04T11:33:20.188Z,66.43
2023-01-04T11:34:52.838Z,66.21
2023-01-04T11:35:59.706Z,66.29
2023-01-04T11:37:03.543Z,65.85
2023-01-04T11:38:22.499Z,65.65
2023-01-04T11:39:27.720Z,65.88
2023-01-04T11:40:32.186Z,66.07
2023-01-04T11:41:36.159Z,65.72
2023-01-04T11:42:40.179Z,65.74
2023-01-04T11:44:05.202Z,64.64
2023-01-04T11:45:27.913Z,64.76
2023-01-04T11:46:34.883Z,64.38
2023-01-04T11:47:50.486Z,64.85
2023-01-04T11:48:55.182Z,64.79
2023-01-04T11:49:59.394Z,64.43
2023-01-04T11:51:05.375Z,64.53
2023-01-04T11:52:46.084Z,64.34
2023-01-04T11:54:06.078Z,63.96
2023-01-04T11:55:33.219Z,63.29
2023-01-04T11:56:38.265Z,62.21
2023-01-04T11:57:43.218Z,62.58
2023-01-04T11:59:25.482Z,62.41
2023-01-04T12:00:29.773Z,63.33
2023-01-04T12:01:50.264Z,62.04
2023-01-04T12:03:25.393Z,62.12
2023-01-04T12:04:30.550Z,62.41
2023-01-04T12:05:39.400Z,62.32
2023-01-04T12:07:02.792Z,61.62
2023-01-04T12:08:26.441Z,61.62
2023-01-04T12:09:31.681Z,62.04
2023-01-04T12:10:35.402Z,61.57
2023-01-04T12:11:45.487Z,60.17
2023-01-04T12:12:49.549Z,60.24
2023-01-04T12:13:53.623Z,60.52
2023-01-04T12:15:04.050Z,60.23
2023-01-04T12:16:46.961Z,59.62
2023-01-04T12:17:57.950Z,59.97
2023-01-04T12:19:01.593Z,59.56
2023-01-04T12:20:20.603Z,59.31
2023-01-04T12:21:27.364Z,59.42
2023-01-04T12:22:39.811Z,59.07
2023-01-04T12:23:43.827Z,59.23
2023-01-04T12:24:48.217Z,59.36
2023-01-04T12:25:54.049Z,59.41
2023-01-04T12:26:59.215Z,59.60
2023-01-04T12:28:02.940Z,59.36
2023-01-04T12:29:24.488Z,59.61
2023-01-04T12:31:21.096Z,59.12
2023-01-04T12:32:25.660Z,58.78
2023-01-04T12:33:34.815Z,58.61
2023-01-04T12:34:41.603Z,58.74
2023-01-04T12:37:49.836Z,57.92
2023-01-04T12:38:56.499Z,58.52
2023-01-04T12:40:00.765Z,58.75
2023-01-04T12:41:04.947Z,58.77
2023-01-04T12:42:24.991Z,58.89
2023-01-04T12:43:44.752Z,58.58
2023-01-04T12:44:52.318Z,58.54
2023-01-04T12:46:49.826Z,57.93
2023-01-04T12:48:14.663Z,57.95
2023-01-04T12:49:30.464Z,57.72
2023-01-04T12:51:33.302Z,56.68
2023-01-04T12:53:30.872Z,57.29
2023-01-04T12:54:32.375Z,56.88
2023-01-04T12:55:43.852Z,56.68
2023-01-04T12:57:18.775Z,56.33
2023-01-04T12:59:14.939Z,56.58
2023-01-04T13:00:14.758Z,56.14
2023-01-04T13:01:30.603Z,56.34
2023-01-04T13:02:44.366Z,56.06
2023-01-04T13:03:48.879Z,55.38
2023-01-04T13:06:25.274Z,55.43
2023-01-04T13:07:42.282Z,55.12
2023-01-04T13:08:49.782Z,55.53
2023-01-04T13:10:02.961Z,55.31
2023-01-04T13:11:51.864Z,55.16
2023-01-04T13:13:13.377Z,55.23
2023-01-04T13:14:49.343Z,55.09
2023-01-04T13:16:28.869Z,55.70
2023-01-04T13:17:40.246Z,54.91
2023-01-04T13:18:53.144Z,55.10
2023-01-04T13:19:56.923Z,55.40
2023-01-04T13:21:13.014Z,55.05
2023-01-04T13:22:31.925Z,55.50
2023-01-04T13:23:36.063Z,55.56
2023-01-04T13:24:45.248Z,55.84
2023-01-04T13:25:48.688Z,55.32
2023-01-04T13:26:53.869Z,55.21
2023-01-04T13:28:04.357Z,55.41
2023-01-04T13:29:30.634Z,55.04
2023-01-04T13:30:39.809Z,55.10
2023-01-04T13:32:20.675Z,54.93
2023-01-04T13:33:27.368Z,55.40
2023-01-04T13:34:45.354Z,55.33
2023-01-04T13:36:13.472Z,54.90
2023-01-04T13:37:26.873Z,55.50
2023-01-04T13:38:34.846Z,55.49
2023-01-04T13:39:43.461Z,55.56
2023-01-04T13:40:49.580Z,55.22
2023-01-04T13:41:54.832Z,55.38
2023-01-04T13:43:16.247Z,55.50
2023-01-04T13:46:27.664Z,55.31
2023-01-04T13:47:37.141Z,55.24
2023-01-04T13:48:49.792Z,55.56
2023-01-04T13:49:54.082Z,55.96
2023-01-04T13:51:15.662Z,55.84
2023-01-04T13:53:58.383Z,55.86
2023-01-04T13:55:30.807Z,55.59
2023-01-04T13:56:35.392Z,55.86
2023-01-04T13:58:33.318Z,55.50
2023-01-04T13:59:38.178Z,55.17
2023-01-04T14:01:13.515Z,55.60
2023-01-04T14:02:22.196Z,55.63
2023-01-04T14:03:52.079Z,55.20
2023-01-04T14:04:56.202Z,55.69
2023-01-04T14:06:17.330Z,55.16
2023-01-04T14:07:26.046Z,55.23
2023-01-04T14:08:38.069Z,55.35
2023-01-04T14:09:56.928Z,55.29
2023-01-04T14:11:01.811Z,55.43
2023-01-04T14:12:19.923Z,55.39
2023-01-04T14:13:24.831Z,55.41
2023-01-04T14:15:03.340Z,55.73
2023-01-04T14:16:15.955Z,55.75
2023-01-04T14:17:54.987Z,55.83
2023-01-04T14:18:58.533Z,55.85
2023-01-04T14:20:16.088Z,56.13
2023-01-04T14:21:35.189Z,55.66
2023-01-04T14:22:45.862Z,55.72
2023-01-04T14:23:49.491Z,55.83
2023-01-04T14:25:15.040Z,55.70
2023-01-04T14:26:42.043Z,55.87
2023-01-04T14:27:45.950Z,55.98
2023-01-04T14:28:50.287Z,55.92
2023-01-04T14:29:53.948Z,56.15
2023-01-04T14:31:03.728Z,56.45
2023-01-04T14:32:12.119Z,56.16
2023-01-04T14:33:36.775Z,56.04
2023-01-04T14:34:40.643Z,56.14
2023-01-04T14:35:47.879Z,56.02
2023-01-04T14:37:04.699Z,55.96
2023-01-04T14:38:21.181Z,56.53
2023-01-04T14:39:32.830Z,56.16
2023-01-04T14:40:38.685Z,56.23
2023-01-04T14:41:53.576Z,56.61
2023-01-04T14:42:58.123Z,56.43
2023-01-04T14:44:01.765Z,56.45
2023-01-04T14:45:14.880Z,56.37
2023-01-04T14:46:18.465Z,56.53
2023-01-04T14:47:22.173Z,56.79
2023-01-04T14:48:25.850Z,56.38
2023-01-04T14:49:29.527Z,56.62
2023-01-04T14:50:33.299Z,56.73
2023-01-04T14:51:46.424Z,57.03
2023-01-04T14:52:54.570Z,56.83
2023-01-04T14:53:58.152Z,56.90
2023-01-04T14:55:05.058Z,56.76
2023-01-04T14:56:19.712Z,56.82
2023-01-04T14:57:23.375Z,56.93
2023-01-04T14:58:27.152Z,57.20
2023-01-04T14:59:30.653Z,56.91
2023-01-04T15:00:34.223Z,57.36
2023-01-04T15:01:39.292Z,56.86
2023-01-04T15:02:47.617Z,57.23
2023-01-04T15:04:00.500Z,57.12
2023-01-04T15:05:04.684Z,57.30
2023-01-04T15:06:10.691Z,57.43
2023-01-04T15:07:38.131Z,57.58
2023-01-04T15:08:42.013Z,57.52
2023-01-04T15:09:45.496Z,57.52
2023-01-04T15:10:54.557Z,57.71
2023-01-04T15:12:01.911Z,57.61
2023-01-04T15:13:13.066Z,57.88
2023-01-04T15:14:19.663Z,57.78
2023-01-04T15:15:23.616Z,57.80
2023-01-04T15:16:27.567Z,58.01
2023-01-04T15:17:31.664Z,57.89
2023-01-04T15:18:35.465Z,57.89
2023-01-04T15:19:41.359Z,58.16
2023-01-04T15:20:45.357Z,58.15
2023-01-04T15:21:49.347Z,58.26
2023-01-04T15:22:53.222Z,58.38
2023-01-04T15:23:56.671Z,58.12
2023-01-04T15:25:00.486Z,58.16
2023-01-04T15:26:14.185Z,58.25
2023-01-04T15:27:24.394Z,58.28
2023-01-04T15:28:30.697Z,58.35
2023-01-04T15:29:35.093Z,58.40
2023-01-04T15:30:43.494Z,58.70
2023-01-04T15:31:47.496Z,58.37
2023-01-04T15:32:51.218Z,58.45
2023-01-04T15:33:55.191Z,58.34
2023-01-04T15:34:58.650Z,58.45
2023-01-04T15:36:12.180Z,58.55
2023-01-04T15:37:21.981Z,58.68
2023-01-04T15:38:27.695Z,58.33
2023-01-04T15:39:31.487Z,58.23
2023-01-04T15:40:36.022Z,58.63
2023-01-04T15:41:58.744Z,58.37
2023-01-04T15:43:03.380Z,58.44
2023-01-04T15:44:13.253Z,58.39